sensor_id;sensor_type;location;lat;lon;timestamp;P1;durP1;ratioP1;P2;durP2;ratioP2
64037;SDS011;54641;50.168;8.492;2022-12-07T00:01:35;22.40;;;12.50;;
64037;SDS011;54641;50.168;8.492;2022-12-07T00:04:07;19.70;;;10.60;;
64037;SDS011;54641;50.168;8.492;2022-12-07T00:06:39;18.70;;;10.50;;
64037;SDS011;54641;50.168;8.492;2022-12-07T00:09:11;20.80;;;11.50;;
64037;SDS011;54641;50.168;8.492;2022-12-07T00:11:43;22.70;;;10.20;;
64037;SDS011;54641;50.168;8.492;2022-12-07T00:14:17;22.10;;;10.00;;
64037;SDS011;54641;50.168;8.492;2022-12-07T00:16:49;19.60;;;10.30;;
64037;SDS011;54641;50.168;8.492;2022-12-07T00:19:20;14.70;;;7.70;;
64037;SDS011;54641;50.168;8.492;2022-12-07T00:21:51;16.10;;;8.20;;
64037;SDS011;54641;50.168;8.492;2022-12-07T00:24:21;15.20;;;7.80;;
64037;SDS011;54641;50.168;8.492;2022-12-07T00:26:51;16.10;;;7.60;;
64037;SDS011;54641;50.168;8.492;2022-12-07T00:29:22;15.80;;;8.10;;
64037;SDS011;54641;50.168;8.492;2022-12-07T00:31:52;16.30;;;8.50;;
64037;SDS011;54641;50.168;8.492;2022-12-07T00:34:23;16.50;;;8.30;;
64037;SDS011;54641;50.168;8.492;2022-12-07T00:36:53;14.20;;;6.90;;
64037;SDS011;54641;50.168;8.492;2022-12-07T00:39:23;15.10;;;7.20;;
64037;SDS011;54641;50.168;8.492;2022-12-07T00:41:54;14.00;;;7.20;;
64037;SDS011;54641;50.168;8.492;2022-12-07T00:44:24;15.70;;;6.90;;
64037;SDS011;54641;50.168;8.492;2022-12-07T00:46:55;12.10;;;6.70;;
64037;SDS011;54641;50.168;8.492;2022-12-07T00:49:25;13.90;;;7.10;;
64037;SDS011;54641;50.168;8.492;2022-12-07T00:51:56;12.20;;;6.20;;
64037;SDS011;54641;50.168;8.492;2022-12-07T00:54:26;12.70;;;7.10;;
64037;SDS011;54641;50.168;8.492;2022-12-07T00:56:57;12.50;;;6.30;;
64037;SDS011;54641;50.168;8.492;2022-12-07T00:59:27;14.50;;;6.20;;
64037;SDS011;54641;50.168;8.492;2022-12-07T01:01:58;12.80;;;7.00;;
64037;SDS011;54641;50.168;8.492;2022-12-07T01:04:28;13.20;;;6.50;;
64037;SDS011;54641;50.168;8.492;2022-12-07T01:06:59;13.40;;;7.00;;
64037;SDS011;54641;50.168;8.492;2022-12-07T01:09:29;16.00;;;6.90;;
64037;SDS011;54641;50.168;8.492;2022-12-07T01:12:02;12.50;;;6.40;;
64037;SDS011;54641;50.168;8.492;2022-12-07T01:17:02;13.30;;;5.90;;
64037;SDS011;54641;50.168;8.492;2022-12-07T01:19:32;11.90;;;5.70;;
64037;SDS011;54641;50.168;8.492;2022-12-07T01:22:03;13.30;;;7.20;;
64037;SDS011;54641;50.168;8.492;2022-12-07T01:24:33;12.40;;;6.60;;
64037;SDS011;54641;50.168;8.492;2022-12-07T01:27:04;14.10;;;6.60;;
64037;SDS011;54641;50.168;8.492;2022-12-07T01:29:34;12.60;;;6.30;;
64037;SDS011;54641;50.168;8.492;2022-12-07T01:32:05;12.00;;;5.50;;
64037;SDS011;54641;50.168;8.492;2022-12-07T01:34:36;11.10;;;5.50;;
64037;SDS011;54641;50.168;8.492;2022-12-07T01:37:06;11.50;;;6.10;;
64037;SDS011;54641;50.168;8.492;2022-12-07T01:39:37;13.00;;;5.80;;
64037;SDS011;54641;50.168;8.492;2022-12-07T01:42:09;11.90;;;5.30;;
64037;SDS011;54641;50.168;8.492;2022-12-07T01:47:55;9.30;;;4.20;;
64037;SDS011;54641;50.168;8.492;2022-12-07T01:50:27;9.70;;;5.20;;
64037;SDS011;54641;50.168;8.492;2022-12-07T01:55:28;13.40;;;5.50;;
64037;SDS011;54641;50.168;8.492;2022-12-07T01:57:59;11.50;;;5.50;;
64037;SDS011;54641;50.168;8.492;2022-12-07T02:00:30;9.70;;;4.60;;
64037;SDS011;54641;50.168;8.492;2022-12-07T02:03:02;8.20;;;4.20;;
64037;SDS011;54641;50.168;8.492;2022-12-07T02:05:35;8.40;;;4.30;;
64037;SDS011;54641;50.168;8.492;2022-12-07T02:08:07;11.50;;;5.40;;
64037;SDS011;54641;50.168;8.492;2022-12-07T02:10:38;12.10;;;5.10;;
64037;SDS011;54641;50.168;8.492;2022-12-07T02:13:10;11.70;;;5.20;;
64037;SDS011;54641;50.168;8.492;2022-12-07T02:18:25;11.40;;;5.40;;
64037;SDS011;54641;50.168;8.492;2022-12-07T02:21:02;10.20;;;5.50;;
64037;SDS011;54641;50.168;8.492;2022-12-07T02:23:41;8.30;;;4.80;;
64037;SDS011;54641;50.168;8.492;2022-12-07T02:26:38;7.20;;;4.20;;
64037;SDS011;54641;50.168;8.492;2022-12-07T02:29:21;11.40;;;6.10;;
64037;SDS011;54641;50.168;8.492;2022-12-07T02:31:56;13.30;;;5.50;;
64037;SDS011;54641;50.168;8.492;2022-12-07T02:34:34;10.90;;;5.40;;
64037;SDS011;54641;50.168;8.492;2022-12-07T02:37:12;9.40;;;4.60;;
64037;SDS011;54641;50.168;8.492;2022-12-07T02:39:50;9.90;;;4.80;;
64037;SDS011;54641;50.168;8.492;2022-12-07T02:42:25;9.60;;;4.50;;
64037;SDS011;54641;50.168;8.492;2022-12-07T02:44:59;11.50;;;5.50;;
64037;SDS011;54641;50.168;8.492;2022-12-07T02:47:30;11.00;;;5.30;;
64037;SDS011;54641;50.168;8.492;2022-12-07T02:50:03;11.00;;;5.20;;
64037;SDS011;54641;50.168;8.492;2022-12-07T02:52:35;10.30;;;4.90;;
64037;SDS011;54641;50.168;8.492;2022-12-07T02:55:06;10.20;;;5.00;;
64037;SDS011;54641;50.168;8.492;2022-12-07T02:57:41;10.50;;;5.30;;
64037;SDS011;54641;50.168;8.492;2022-12-07T03:00:17;9.40;;;4.90;;
64037;SDS011;54641;50.168;8.492;2022-12-07T03:02:51;10.10;;;5.30;;
64037;SDS011;54641;50.168;8.492;2022-12-07T03:05:31;11.00;;;5.40;;
64037;SDS011;54641;50.168;8.492;2022-12-07T03:08:11;12.60;;;6.50;;
64037;SDS011;54641;50.168;8.492;2022-12-07T03:10:48;10.20;;;5.40;;
64037;SDS011;54641;50.168;8.492;2022-12-07T03:13:23;8.60;;;4.60;;
64037;SDS011;54641;50.168;8.492;2022-12-07T03:15:59;9.50;;;5.10;;
64037;SDS011;54641;50.168;8.492;2022-12-07T03:18:35;8.60;;;4.60;;
64037;SDS011;54641;50.168;8.492;2022-12-07T03:21:09;14.00;;;6.20;;
64037;SDS011;54641;50.168;8.492;2022-12-07T03:23:43;13.60;;;6.50;;
64037;SDS011;54641;50.168;8.492;2022-12-07T03:28:46;10.50;;;5.40;;
64037;SDS011;54641;50.168;8.492;2022-12-07T03:31:19;11.80;;;5.70;;
64037;SDS011;54641;50.168;8.492;2022-12-07T03:33:53;11.10;;;5.00;;
64037;SDS011;54641;50.168;8.492;2022-12-07T03:36:29;12.10;;;6.20;;
64037;SDS011;54641;50.168;8.492;2022-12-07T03:39:02;16.10;;;7.40;;
64037;SDS011;54641;50.168;8.492;2022-12-07T03:41:36;11.60;;;6.50;;
64037;SDS011;54641;50.168;8.492;2022-12-07T03:44:12;11.40;;;5.50;;
64037;SDS011;54641;50.168;8.492;2022-12-07T03:47:00;9.90;;;5.70;;
64037;SDS011;54641;50.168;8.492;2022-12-07T03:49:32;10.50;;;5.60;;
64037;SDS011;54641;50.168;8.492;2022-12-07T03:52:08;10.40;;;6.10;;
64037;SDS011;54641;50.168;8.492;2022-12-07T03:54:47;13.30;;;6.70;;
64037;SDS011;54641;50.168;8.492;2022-12-07T03:57:20;10.20;;;5.90;;
64037;SDS011;54641;50.168;8.492;2022-12-07T03:59:52;9.40;;;5.20;;
64037;SDS011;54641;50.168;8.492;2022-12-07T04:02:24;9.60;;;5.90;;
64037;SDS011;54641;50.168;8.492;2022-12-07T04:04:56;11.70;;;6.20;;
64037;SDS011;54641;50.168;8.492;2022-12-07T04:07:27;13.20;;;6.20;;
64037;SDS011;54641;50.168;8.492;2022-12-07T04:09:58;14.80;;;7.10;;
64037;SDS011;54641;50.168;8.492;2022-12-07T04:12:29;14.70;;;7.20;;
64037;SDS011;54641;50.168;8.492;2022-12-07T04:14:59;13.90;;;7.30;;
64037;SDS011;54641;50.168;8.492;2022-12-07T04:17:30;12.60;;;6.90;;
64037;SDS011;54641;50.168;8.492;2022-12-07T04:20:01;10.40;;;6.60;;
64037;SDS011;54641;50.168;8.492;2022-12-07T04:22:32;12.50;;;6.60;;
64037;SDS011;54641;50.168;8.492;2022-12-07T04:25:03;14.30;;;7.80;;
64037;SDS011;54641;50.168;8.492;2022-12-07T04:27:34;17.00;;;7.70;;
64037;SDS011;54641;50.168;8.492;2022-12-07T04:30:05;13.80;;;8.20;;
64037;SDS011;54641;50.168;8.492;2022-12-07T04:32:37;13.10;;;6.30;;
64037;SDS011;54641;50.168;8.492;2022-12-07T04:35:09;14.30;;;7.10;;
64037;SDS011;54641;50.168;8.492;2022-12-07T04:37:40;12.50;;;7.40;;
64037;SDS011;54641;50.168;8.492;2022-12-07T04:40:10;13.00;;;7.20;;
64037;SDS011;54641;50.168;8.492;2022-12-07T04:42:42;14.70;;;7.00;;
64037;SDS011;54641;50.168;8.492;2022-12-07T04:45:12;16.20;;;8.50;;
64037;SDS011;54641;50.168;8.492;2022-12-07T04:47:42;11.60;;;6.60;;
64037;SDS011;54641;50.168;8.492;2022-12-07T04:50:13;12.40;;;6.30;;
64037;SDS011;54641;50.168;8.492;2022-12-07T04:52:43;9.50;;;5.20;;
64037;SDS011;54641;50.168;8.492;2022-12-07T04:55:14;11.80;;;5.40;;
64037;SDS011;54641;50.168;8.492;2022-12-07T04:57:45;13.50;;;7.10;;
64037;SDS011;54641;50.168;8.492;2022-12-07T05:00:15;10.40;;;5.20;;
64037;SDS011;54641;50.168;8.492;2022-12-07T05:03:02;10.30;;;5.60;;
64037;SDS011;54641;50.168;8.492;2022-12-07T05:05:32;10.90;;;6.10;;
64037;SDS011;54641;50.168;8.492;2022-12-07T05:08:03;9.40;;;4.90;;
64037;SDS011;54641;50.168;8.492;2022-12-07T05:10:34;10.70;;;6.00;;
64037;SDS011;54641;50.168;8.492;2022-12-07T05:13:04;12.50;;;6.10;;
64037;SDS011;54641;50.168;8.492;2022-12-07T05:15:35;11.90;;;7.20;;
64037;SDS011;54641;50.168;8.492;2022-12-07T05:18:05;11.60;;;6.50;;
64037;SDS011;54641;50.168;8.492;2022-12-07T05:20:40;11.10;;;6.80;;
64037;SDS011;54641;50.168;8.492;2022-12-07T05:23:10;9.10;;;5.20;;
64037;SDS011;54641;50.168;8.492;2022-12-07T05:25:41;12.30;;;7.00;;
64037;SDS011;54641;50.168;8.492;2022-12-07T05:28:11;12.20;;;7.50;;
64037;SDS011;54641;50.168;8.492;2022-12-07T05:30:42;16.10;;;8.80;;
64037;SDS011;54641;50.168;8.492;2022-12-07T05:33:12;16.30;;;8.00;;
64037;SDS011;54641;50.168;8.492;2022-12-07T05:35:43;14.00;;;7.80;;
64037;SDS011;54641;50.168;8.492;2022-12-07T05:38:13;12.90;;;7.30;;
64037;SDS011;54641;50.168;8.492;2022-12-07T05:40:43;11.00;;;6.30;;
64037;SDS011;54641;50.168;8.492;2022-12-07T05:43:14;14.10;;;7.50;;
64037;SDS011;54641;50.168;8.492;2022-12-07T05:45:44;17.20;;;9.20;;
64037;SDS011;54641;50.168;8.492;2022-12-07T05:48:15;16.10;;;8.20;;
64037;SDS011;54641;50.168;8.492;2022-12-07T05:50:45;16.70;;;9.00;;
64037;SDS011;54641;50.168;8.492;2022-12-07T05:53:17;16.00;;;8.30;;
64037;SDS011;54641;50.168;8.492;2022-12-07T05:55:51;14.20;;;8.20;;
64037;SDS011;54641;50.168;8.492;2022-12-07T05:58:22;15.50;;;8.20;;
64037;SDS011;54641;50.168;8.492;2022-12-07T06:01:10;11.30;;;6.20;;
64037;SDS011;54641;50.168;8.492;2022-12-07T06:03:40;13.60;;;7.80;;
64037;SDS011;54641;50.168;8.492;2022-12-07T06:06:11;17.10;;;9.10;;
64037;SDS011;54641;50.168;8.492;2022-12-07T06:08:41;15.90;;;8.10;;
64037;SDS011;54641;50.168;8.492;2022-12-07T06:18:47;14.50;;;7.30;;
64037;SDS011;54641;50.168;8.492;2022-12-07T06:21:17;15.70;;;7.70;;
64037;SDS011;54641;50.168;8.492;2022-12-07T06:23:47;13.70;;;7.70;;
64037;SDS011;54641;50.168;8.492;2022-12-07T06:26:18;13.70;;;7.60;;
64037;SDS011;54641;50.168;8.492;2022-12-07T06:28:48;12.90;;;7.10;;
64037;SDS011;54641;50.168;8.492;2022-12-07T06:31:19;14.80;;;6.60;;
64037;SDS011;54641;50.168;8.492;2022-12-07T06:33:49;11.50;;;6.70;;
64037;SDS011;54641;50.168;8.492;2022-12-07T06:36:20;8.30;;;5.10;;
64037;SDS011;54641;50.168;8.492;2022-12-07T06:38:54;16.60;;;7.70;;
64037;SDS011;54641;50.168;8.492;2022-12-07T06:41:24;14.00;;;7.60;;
64037;SDS011;54641;50.168;8.492;2022-12-07T06:43:55;12.30;;;6.40;;
64037;SDS011;54641;50.168;8.492;2022-12-07T06:46:25;14.00;;;7.90;;
64037;SDS011;54641;50.168;8.492;2022-12-07T06:48:56;14.20;;;7.30;;
64037;SDS011;54641;50.168;8.492;2022-12-07T06:51:26;11.80;;;6.90;;
64037;SDS011;54641;50.168;8.492;2022-12-07T06:53:57;13.20;;;7.20;;
64037;SDS011;54641;50.168;8.492;2022-12-07T06:56:27;13.60;;;6.80;;
64037;SDS011;54641;50.168;8.492;2022-12-07T06:58:58;16.70;;;7.70;;
64037;SDS011;54641;50.168;8.492;2022-12-07T07:01:28;12.40;;;6.90;;
64037;SDS011;54641;50.168;8.492;2022-12-07T07:03:59;11.10;;;6.80;;
64037;SDS011;54641;50.168;8.492;2022-12-07T07:06:30;12.60;;;7.10;;
64037;SDS011;54641;50.168;8.492;2022-12-07T07:09:01;11.60;;;6.10;;
64037;SDS011;54641;50.168;8.492;2022-12-07T07:11:32;13.80;;;7.80;;
64037;SDS011;54641;50.168;8.492;2022-12-07T07:14:02;15.60;;;8.30;;
64037;SDS011;54641;50.168;8.492;2022-12-07T07:16:33;15.20;;;7.90;;
64037;SDS011;54641;50.168;8.492;2022-12-07T07:19:03;15.70;;;8.40;;
64037;SDS011;54641;50.168;8.492;2022-12-07T07:21:34;13.80;;;8.10;;
64037;SDS011;54641;50.168;8.492;2022-12-07T07:24:06;14.10;;;7.30;;
64037;SDS011;54641;50.168;8.492;2022-12-07T07:26:37;13.10;;;7.70;;
64037;SDS011;54641;50.168;8.492;2022-12-07T07:29:07;13.80;;;7.50;;
64037;SDS011;54641;50.168;8.492;2022-12-07T07:31:38;11.50;;;6.80;;
64037;SDS011;54641;50.168;8.492;2022-12-07T07:34:08;11.30;;;6.20;;
64037;SDS011;54641;50.168;8.492;2022-12-07T07:36:39;12.20;;;6.70;;
64037;SDS011;54641;50.168;8.492;2022-12-07T07:39:10;10.00;;;6.10;;
64037;SDS011;54641;50.168;8.492;2022-12-07T07:41:41;11.30;;;7.30;;
64037;SDS011;54641;50.168;8.492;2022-12-07T07:44:13;12.60;;;7.00;;
64037;SDS011;54641;50.168;8.492;2022-12-07T07:46:43;12.30;;;6.80;;
64037;SDS011;54641;50.168;8.492;2022-12-07T07:49:14;10.80;;;6.40;;
64037;SDS011;54641;50.168;8.492;2022-12-07T07:51:44;9.00;;;5.30;;
64037;SDS011;54641;50.168;8.492;2022-12-07T07:54:15;8.70;;;5.60;;
64037;SDS011;54641;50.168;8.492;2022-12-07T07:56:45;10.80;;;6.20;;
64037;SDS011;54641;50.168;8.492;2022-12-07T07:59:16;7.80;;;4.70;;
64037;SDS011;54641;50.168;8.492;2022-12-07T08:01:47;11.70;;;5.70;;
64037;SDS011;54641;50.168;8.492;2022-12-07T08:04:17;12.40;;;6.60;;
64037;SDS011;54641;50.168;8.492;2022-12-07T08:06:48;11.30;;;6.30;;
64037;SDS011;54641;50.168;8.492;2022-12-07T08:09:21;9.00;;;5.10;;
64037;SDS011;54641;50.168;8.492;2022-12-07T08:11:51;9.80;;;5.60;;
64037;SDS011;54641;50.168;8.492;2022-12-07T08:14:22;10.80;;;5.00;;
64037;SDS011;54641;50.168;8.492;2022-12-07T08:16:52;8.40;;;4.60;;
64037;SDS011;54641;50.168;8.492;2022-12-07T08:19:23;12.20;;;6.10;;
64037;SDS011;54641;50.168;8.492;2022-12-07T08:21:53;8.90;;;4.80;;
64037;SDS011;54641;50.168;8.492;2022-12-07T08:24:24;8.00;;;4.80;;
64037;SDS011;54641;50.168;8.492;2022-12-07T08:26:55;8.80;;;5.30;;
64037;SDS011;54641;50.168;8.492;2022-12-07T08:29:25;8.60;;;5.00;;
64037;SDS011;54641;50.168;8.492;2022-12-07T08:31:56;7.00;;;4.10;;
64037;SDS011;54641;50.168;8.492;2022-12-07T08:34:35;9.70;;;5.80;;
64037;SDS011;54641;50.168;8.492;2022-12-07T08:37:06;11.90;;;6.00;;
64037;SDS011;54641;50.168;8.492;2022-12-07T08:39:36;8.90;;;5.30;;
64037;SDS011;54641;50.168;8.492;2022-12-07T08:42:07;7.70;;;4.20;;
64037;SDS011;54641;50.168;8.492;2022-12-07T08:44:37;8.20;;;4.40;;
64037;SDS011;54641;50.168;8.492;2022-12-07T08:47:08;8.20;;;4.50;;
64037;SDS011;54641;50.168;8.492;2022-12-07T08:49:40;7.70;;;4.90;;
64037;SDS011;54641;50.168;8.492;2022-12-07T08:52:12;9.80;;;5.60;;
64037;SDS011;54641;50.168;8.492;2022-12-07T08:54:46;8.40;;;5.10;;
64037;SDS011;54641;50.168;8.492;2022-12-07T08:57:17;9.00;;;5.10;;
64037;SDS011;54641;50.168;8.492;2022-12-07T08:59:47;8.20;;;4.70;;
64037;SDS011;54641;50.168;8.492;2022-12-07T09:02:18;7.00;;;4.70;;
64037;SDS011;54641;50.168;8.492;2022-12-07T09:04:48;8.50;;;5.20;;
64037;SDS011;54641;50.168;8.492;2022-12-07T09:07:19;7.60;;;4.50;;
64037;SDS011;54641;50.168;8.492;2022-12-07T09:09:49;7.50;;;4.30;;
64037;SDS011;54641;50.168;8.492;2022-12-07T09:12:20;6.80;;;4.50;;
64037;SDS011;54641;50.168;8.492;2022-12-07T09:14:53;8.20;;;4.90;;
64037;SDS011;54641;50.168;8.492;2022-12-07T09:17:24;9.00;;;4.70;;
64037;SDS011;54641;50.168;8.492;2022-12-07T09:19:54;7.50;;;4.80;;
64037;SDS011;54641;50.168;8.492;2022-12-07T09:22:25;6.90;;;5.00;;
64037;SDS011;54641;50.168;8.492;2022-12-07T09:25:00;8.50;;;5.10;;
64037;SDS011;54641;50.168;8.492;2022-12-07T09:27:33;8.10;;;4.80;;
64037;SDS011;54641;50.168;8.492;2022-12-07T09:30:06;6.30;;;4.90;;
64037;SDS011;54641;50.168;8.492;2022-12-07T09:32:37;6.70;;;4.50;;
64037;SDS011;54641;50.168;8.492;2022-12-07T09:35:12;6.10;;;4.00;;
64037;SDS011;54641;50.168;8.492;2022-12-07T09:37:42;6.80;;;4.40;;
64037;SDS011;54641;50.168;8.492;2022-12-07T09:40:14;9.90;;;6.80;;
64037;SDS011;54641;50.168;8.492;2022-12-07T09:42:47;8.00;;;5.10;;
64037;SDS011;54641;50.168;8.492;2022-12-07T09:45:21;6.00;;;3.50;;
64037;SDS011;54641;50.168;8.492;2022-12-07T09:47:52;6.70;;;4.50;;
64037;SDS011;54641;50.168;8.492;2022-12-07T09:50:24;6.70;;;4.10;;
64037;SDS011;54641;50.168;8.492;2022-12-07T09:55:28;7.70;;;4.00;;
64037;SDS011;54641;50.168;8.492;2022-12-07T09:57:59;6.90;;;4.20;;
64037;SDS011;54641;50.168;8.492;2022-12-07T10:00:30;6.40;;;3.90;;
64037;SDS011;54641;50.168;8.492;2022-12-07T10:03:00;5.80;;;3.80;;
64037;SDS011;54641;50.168;8.492;2022-12-07T10:05:34;6.30;;;3.60;;
64037;SDS011;54641;50.168;8.492;2022-12-07T10:08:08;8.00;;;3.90;;
64037;SDS011;54641;50.168;8.492;2022-12-07T10:10:41;7.90;;;3.80;;
64037;SDS011;54641;50.168;8.492;2022-12-07T10:13:13;6.60;;;3.90;;
64037;SDS011;54641;50.168;8.492;2022-12-07T10:15:51;12.20;;;4.80;;
64037;SDS011;54641;50.168;8.492;2022-12-07T10:18:26;8.00;;;4.40;;
64037;SDS011;54641;50.168;8.492;2022-12-07T10:21:03;6.90;;;3.60;;
64037;SDS011;54641;50.168;8.492;2022-12-07T10:23:42;9.10;;;3.70;;
64037;SDS011;54641;50.168;8.492;2022-12-07T10:26:29;7.70;;;3.50;;
64037;SDS011;54641;50.168;8.492;2022-12-07T10:31:32;5.60;;;3.30;;
64037;SDS011;54641;50.168;8.492;2022-12-07T10:34:14;7.50;;;3.80;;
64037;SDS011;54641;50.168;8.492;2022-12-07T10:36:52;7.00;;;3.60;;
64037;SDS011;54641;50.168;8.492;2022-12-07T10:39:24;8.00;;;3.30;;
64037;SDS011;54641;50.168;8.492;2022-12-07T10:41:57;5.80;;;3.50;;
64037;SDS011;54641;50.168;8.492;2022-12-07T10:44:28;7.60;;;3.50;;
64037;SDS011;54641;50.168;8.492;2022-12-07T10:47:06;5.50;;;3.40;;
64037;SDS011;54641;50.168;8.492;2022-12-07T10:50:01;5.60;;;3.60;;
64037;SDS011;54641;50.168;8.492;2022-12-07T10:52:42;5.60;;;3.30;;
64037;SDS011;54641;50.168;8.492;2022-12-07T10:55:21;6.70;;;4.20;;
64037;SDS011;54641;50.168;8.492;2022-12-07T10:58:14;5.00;;;3.00;;
64037;SDS011;54641;50.168;8.492;2022-12-07T11:00:57;5.70;;;3.70;;
64037;SDS011;54641;50.168;8.492;2022-12-07T11:03:41;6.70;;;3.40;;
64037;SDS011;54641;50.168;8.492;2022-12-07T11:06:19;7.20;;;3.30;;
64037;SDS011;54641;50.168;8.492;2022-12-07T11:09:00;5.00;;;3.30;;
64037;SDS011;54641;50.168;8.492;2022-12-07T11:11:38;6.50;;;3.30;;
64037;SDS011;54641;50.168;8.492;2022-12-07T11:14:13;5.30;;;3.10;;
64037;SDS011;54641;50.168;8.492;2022-12-07T11:16:51;5.30;;;3.40;;
64037;SDS011;54641;50.168;8.492;2022-12-07T11:19:46;6.90;;;3.50;;
64037;SDS011;54641;50.168;8.492;2022-12-07T11:22:23;7.10;;;3.80;;
64037;SDS011;54641;50.168;8.492;2022-12-07T11:24:59;7.20;;;3.40;;
64037;SDS011;54641;50.168;8.492;2022-12-07T11:27:43;7.30;;;3.30;;
64037;SDS011;54641;50.168;8.492;2022-12-07T11:30:18;5.10;;;3.40;;
64037;SDS011;54641;50.168;8.492;2022-12-07T11:32:53;5.60;;;3.40;;
64037;SDS011;54641;50.168;8.492;2022-12-07T11:35:33;4.90;;;3.10;;
64037;SDS011;54641;50.168;8.492;2022-12-07T11:38:10;5.10;;;3.30;;
64037;SDS011;54641;50.168;8.492;2022-12-07T11:40:44;5.10;;;3.10;;
64037;SDS011;54641;50.168;8.492;2022-12-07T11:43:18;6.10;;;3.30;;
64037;SDS011;54641;50.168;8.492;2022-12-07T11:45:54;4.70;;;3.10;;
64037;SDS011;54641;50.168;8.492;2022-12-07T11:48:30;6.00;;;3.10;;
64037;SDS011;54641;50.168;8.492;2022-12-07T11:51:03;3.30;;;2.40;;
64037;SDS011;54641;50.168;8.492;2022-12-07T11:53:35;3.90;;;2.10;;
64037;SDS011;54641;50.168;8.492;2022-12-07T11:56:07;4.90;;;2.80;;
64037;SDS011;54641;50.168;8.492;2022-12-07T11:58:49;4.40;;;2.70;;
64037;SDS011;54641;50.168;8.492;2022-12-07T12:01:24;4.40;;;2.80;;
64037;SDS011;54641;50.168;8.492;2022-12-07T12:04:03;5.40;;;2.70;;
64037;SDS011;54641;50.168;8.492;2022-12-07T12:06:42;5.10;;;2.70;;
64037;SDS011;54641;50.168;8.492;2022-12-07T12:09:14;4.60;;;2.50;;
64037;SDS011;54641;50.168;8.492;2022-12-07T12:12:16;5.90;;;2.10;;
64037;SDS011;54641;50.168;8.492;2022-12-07T12:15:26;4.50;;;1.80;;
64037;SDS011;54641;50.168;8.492;2022-12-07T12:21:15;3.40;;;1.90;;
64037;SDS011;54641;50.168;8.492;2022-12-07T12:23:47;4.50;;;1.70;;
64037;SDS011;54641;50.168;8.492;2022-12-07T12:26:20;7.50;;;2.00;;
64037;SDS011;54641;50.168;8.492;2022-12-07T12:28:54;5.60;;;2.10;;
64037;SDS011;54641;50.168;8.492;2022-12-07T12:34:40;4.90;;;2.10;;
64037;SDS011;54641;50.168;8.492;2022-12-07T12:37:41;4.00;;;2.00;;
64037;SDS011;54641;50.168;8.492;2022-12-07T12:46:37;2.60;;;1.60;;
64037;SDS011;54641;50.168;8.492;2022-12-07T12:55:42;8.80;;;3.40;;
64037;SDS011;54641;50.168;8.492;2022-12-07T12:58:41;5.30;;;1.80;;
64037;SDS011;54641;50.168;8.492;2022-12-07T13:04:25;4.00;;;2.10;;
64037;SDS011;54641;50.168;8.492;2022-12-07T13:06:58;3.10;;;1.80;;
64037;SDS011;54641;50.168;8.492;2022-12-07T13:09:29;3.90;;;1.90;;
64037;SDS011;54641;50.168;8.492;2022-12-07T13:12:02;5.10;;;1.90;;
64037;SDS011;54641;50.168;8.492;2022-12-07T13:14:51;3.40;;;1.70;;
64037;SDS011;54641;50.168;8.492;2022-12-07T13:20:52;3.10;;;1.70;;
64037;SDS011;54641;50.168;8.492;2022-12-07T13:23:25;2.40;;;1.70;;
64037;SDS011;54641;50.168;8.492;2022-12-07T13:26:04;4.20;;;1.80;;
64037;SDS011;54641;50.168;8.492;2022-12-07T13:28:46;3.50;;;1.70;;
64037;SDS011;54641;50.168;8.492;2022-12-07T13:31:23;4.20;;;1.50;;
64037;SDS011;54641;50.168;8.492;2022-12-07T13:34:00;3.00;;;2.10;;
64037;SDS011;54641;50.168;8.492;2022-12-07T13:36:31;6.90;;;2.00;;
64037;SDS011;54641;50.168;8.492;2022-12-07T13:39:18;4.70;;;2.20;;
64037;SDS011;54641;50.168;8.492;2022-12-07T13:41:51;4.20;;;2.10;;
64037;SDS011;54641;50.168;8.492;2022-12-07T13:44:23;6.00;;;2.10;;
64037;SDS011;54641;50.168;8.492;2022-12-07T13:46:55;3.60;;;2.00;;
64037;SDS011;54641;50.168;8.492;2022-12-07T13:49:29;3.90;;;2.30;;
64037;SDS011;54641;50.168;8.492;2022-12-07T13:52:15;5.40;;;2.70;;
64037;SDS011;54641;50.168;8.492;2022-12-07T13:54:48;5.70;;;2.20;;
64037;SDS011;54641;50.168;8.492;2022-12-07T13:57:23;4.40;;;2.30;;
64037;SDS011;54641;50.168;8.492;2022-12-07T13:59:55;5.30;;;3.00;;
64037;SDS011;54641;50.168;8.492;2022-12-07T14:02:27;8.80;;;3.10;;
64037;SDS011;54641;50.168;8.492;2022-12-07T14:05:09;6.90;;;2.20;;
64037;SDS011;54641;50.168;8.492;2022-12-07T14:07:52;5.20;;;2.60;;
64037;SDS011;54641;50.168;8.492;2022-12-07T14:10:25;6.70;;;2.40;;
64037;SDS011;54641;50.168;8.492;2022-12-07T14:12:57;5.30;;;2.50;;
64037;SDS011;54641;50.168;8.492;2022-12-07T14:15:30;3.60;;;2.10;;
64037;SDS011;54641;50.168;8.492;2022-12-07T14:18:02;4.90;;;1.80;;
64037;SDS011;54641;50.168;8.492;2022-12-07T14:20:33;2.70;;;1.50;;
64037;SDS011;54641;50.168;8.492;2022-12-07T14:23:05;4.40;;;1.80;;
64037;SDS011;54641;50.168;8.492;2022-12-07T14:25:51;4.10;;;1.80;;
64037;SDS011;54641;50.168;8.492;2022-12-07T14:28:26;4.80;;;1.70;;
64037;SDS011;54641;50.168;8.492;2022-12-07T14:30:58;4.70;;;1.70;;
64037;SDS011;54641;50.168;8.492;2022-12-07T14:33:29;4.60;;;2.10;;
64037;SDS011;54641;50.168;8.492;2022-12-07T14:35:59;3.70;;;2.00;;
64037;SDS011;54641;50.168;8.492;2022-12-07T14:38:30;6.60;;;1.90;;
64037;SDS011;54641;50.168;8.492;2022-12-07T14:41:00;3.40;;;1.40;;
64037;SDS011;54641;50.168;8.492;2022-12-07T14:43:45;2.20;;;1.20;;
64037;SDS011;54641;50.168;8.492;2022-12-07T14:46:36;5.70;;;1.50;;
64037;SDS011;54641;50.168;8.492;2022-12-07T14:49:07;4.30;;;1.50;;
64037;SDS011;54641;50.168;8.492;2022-12-07T14:51:58;3.10;;;1.40;;
64037;SDS011;54641;50.168;8.492;2022-12-07T14:54:48;3.40;;;1.70;;
64037;SDS011;54641;50.168;8.492;2022-12-07T14:57:19;4.80;;;1.80;;
64037;SDS011;54641;50.168;8.492;2022-12-07T14:59:49;3.40;;;1.40;;
64037;SDS011;54641;50.168;8.492;2022-12-07T15:02:20;2.70;;;1.30;;
64037;SDS011;54641;50.168;8.492;2022-12-07T15:04:50;2.80;;;1.50;;
64037;SDS011;54641;50.168;8.492;2022-12-07T15:07:21;4.40;;;1.80;;
64037;SDS011;54641;50.168;8.492;2022-12-07T15:09:51;5.00;;;2.00;;
64037;SDS011;54641;50.168;8.492;2022-12-07T15:12:22;3.90;;;2.00;;
64037;SDS011;54641;50.168;8.492;2022-12-07T15:14:53;4.90;;;2.20;;
64037;SDS011;54641;50.168;8.492;2022-12-07T15:17:23;4.60;;;1.80;;
64037;SDS011;54641;50.168;8.492;2022-12-07T15:19:59;4.80;;;1.80;;
64037;SDS011;54641;50.168;8.492;2022-12-07T15:22:30;4.00;;;2.30;;
64037;SDS011;54641;50.168;8.492;2022-12-07T15:25:05;3.30;;;1.70;;
64037;SDS011;54641;50.168;8.492;2022-12-07T15:27:37;4.10;;;1.90;;
64037;SDS011;54641;50.168;8.492;2022-12-07T15:30:08;8.10;;;2.60;;
64037;SDS011;54641;50.168;8.492;2022-12-07T15:32:39;6.00;;;3.10;;
64037;SDS011;54641;50.168;8.492;2022-12-07T15:35:10;6.10;;;2.20;;
64037;SDS011;54641;50.168;8.492;2022-12-07T15:37:40;4.30;;;1.80;;
64037;SDS011;54641;50.168;8.492;2022-12-07T15:40:12;7.90;;;2.50;;
64037;SDS011;54641;50.168;8.492;2022-12-07T15:42:43;3.60;;;1.80;;
64037;SDS011;54641;50.168;8.492;2022-12-07T15:45:14;6.90;;;2.00;;
64037;SDS011;54641;50.168;8.492;2022-12-07T15:47:44;6.90;;;2.80;;
64037;SDS011;54641;50.168;8.492;2022-12-07T15:50:35;7.30;;;2.70;;
64037;SDS011;54641;50.168;8.492;2022-12-07T15:53:05;9.50;;;3.20;;
64037;SDS011;54641;50.168;8.492;2022-12-07T15:55:36;6.50;;;2.40;;
64037;SDS011;54641;50.168;8.492;2022-12-07T15:58:08;3.20;;;1.90;;
64037;SDS011;54641;50.168;8.492;2022-12-07T16:00:39;5.30;;;2.00;;
64037;SDS011;54641;50.168;8.492;2022-12-07T16:03:09;6.00;;;1.90;;
64037;SDS011;54641;50.168;8.492;2022-12-07T16:05:40;8.80;;;3.00;;
64037;SDS011;54641;50.168;8.492;2022-12-07T16:08:10;6.10;;;2.40;;
64037;SDS011;54641;50.168;8.492;2022-12-07T16:10:41;10.20;;;3.10;;